Wardwell, Mississippi
Current Conditions -  °F | °C
As of 8:53 PM on Friday 21 Nov 2014 (Local Time) from KTUP Reporting Station
Scattered Clouds Scattered Clouds  
Wind Chill: 53°   Ceiling: Unl
Heat Index: 53°   Visibility: 10mi
Dew Point: 46°   Wind: 3mph
Humidity: 77%   Direction: 160°SSE
Pressure: 30.32"   Gusts: NA
Location:  33.9472°N, 89.1968°W
Report Text: KTUP 220253Z AUTO 16003KT 10SM SCT110 12/08 A3032 RMK AO2 SLP267 T01170078 53005 $
Loading
Personal Weather Stations






























Interactive Weather Map New forecast layout! Learn more

10-Day Weather Forecast

Advertisements
Track Severe Weather on mobile